createdAt,value
2022-08-16T00:02:21.942Z,25.80
2022-08-16T00:04:51.181Z,25.80
2022-08-16T00:07:17.761Z,25.80
2022-08-16T00:09:44.223Z,25.80
2022-08-16T00:12:10.725Z,25.80
2022-08-16T00:14:37.192Z,25.80
2022-08-16T00:17:16.282Z,25.80
2022-08-16T00:19:45.501Z,25.70
2022-08-16T00:22:13.652Z,25.70
2022-08-16T00:24:41.621Z,25.70
2022-08-16T00:27:11.501Z,25.60
2022-08-16T00:29:38.667Z,25.60
2022-08-16T00:32:06.184Z,25.50
2022-08-16T00:34:43.229Z,25.50
2022-08-16T00:37:20.171Z,25.50
2022-08-16T00:39:47.606Z,25.50
2022-08-16T00:42:14.388Z,25.40
2022-08-16T00:44:56.384Z,25.40
2022-08-16T00:47:22.861Z,25.40
2022-08-16T00:49:56.487Z,25.40
2022-08-16T00:52:30.286Z,25.40
2022-08-16T00:54:57.305Z,25.40
2022-08-16T00:57:23.987Z,25.40
2022-08-16T00:59:54.800Z,25.40
2022-08-16T01:02:31.740Z,25.40
2022-08-16T01:05:10.488Z,25.40
2022-08-16T01:07:50.966Z,25.40
2022-08-16T01:10:19.343Z,25.40
2022-08-16T01:12:45.840Z,25.40
2022-08-16T01:15:12.318Z,25.40
2022-08-16T01:17:38.784Z,25.30
2022-08-16T01:20:24.411Z,25.30
2022-08-16T01:22:55.880Z,25.30
2022-08-16T01:25:23.496Z,25.30
2022-08-16T01:28:00.719Z,25.40
2022-08-16T01:30:27.195Z,25.30
2022-08-16T01:33:02.017Z,25.40
2022-08-16T01:35:40.305Z,25.40
2022-08-16T01:38:08.316Z,25.40
2022-08-16T01:40:45.814Z,25.30
2022-08-16T01:43:12.576Z,25.30
2022-08-16T01:45:40.753Z,25.30
2022-08-16T01:48:19.707Z,25.20
2022-08-16T01:51:08.944Z,25.20
2022-08-16T01:53:33.417Z,25.10
2022-08-16T01:56:00.063Z,25.00
2022-08-16T01:58:26.526Z,25.00
2022-08-16T02:00:54.880Z,25.00
2022-08-16T02:03:24.430Z,25.00
2022-08-16T02:05:53.005Z,25.00
2022-08-16T02:08:33.934Z,24.90
2022-08-16T02:11:00.844Z,24.90
2022-08-16T02:13:27.712Z,24.90
2022-08-16T02:15:59.224Z,24.80
2022-08-16T02:18:25.686Z,24.80
2022-08-16T02:20:53.377Z,24.80
2022-08-16T02:23:20.099Z,24.70
2022-08-16T02:25:50.871Z,24.60
2022-08-16T02:28:19.596Z,24.60
2022-08-16T02:30:50.625Z,24.60
2022-08-16T02:33:18.076Z,24.50
2022-08-16T02:35:54.607Z,24.50
2022-08-16T02:38:24.696Z,24.50
2022-08-16T02:40:51.245Z,24.40
2022-08-16T02:43:17.704Z,24.40
2022-08-16T02:45:44.182Z,24.40
2022-08-16T02:48:30.014Z,24.40
2022-08-16T02:51:06.021Z,24.40
2022-08-16T02:53:33.494Z,24.40
2022-08-16T02:56:00.437Z,24.30
2022-08-16T02:58:27.112Z,24.30
2022-08-16T03:00:56.175Z,24.30
2022-08-16T03:03:23.677Z,24.20
2022-08-16T03:05:52.513Z,24.20
2022-08-16T03:08:51.029Z,24.20
2022-08-16T03:11:06.108Z,24.20
2022-08-16T03:13:43.452Z,24.20
2022-08-16T03:16:32.945Z,24.10
2022-08-16T03:19:00.497Z,24.10
2022-08-16T03:21:28.307Z,24.10
2022-08-16T03:24:04.808Z,24.00
2022-08-16T03:26:31.590Z,24.00
2022-08-16T03:28:58.503Z,24.00
2022-08-16T03:31:25.869Z,24.00
2022-08-16T03:34:01.404Z,23.90
2022-08-16T03:36:30.708Z,23.90
2022-08-16T03:38:57.784Z,23.90
2022-08-16T03:41:29.190Z,23.90
2022-08-16T03:43:56.120Z,23.80
2022-08-16T03:46:48.426Z,23.80
2022-08-16T03:49:09.029Z,23.80
2022-08-16T03:51:36.224Z,23.80
2022-08-16T03:54:02.685Z,23.80
2022-08-16T03:56:38.635Z,23.70
2022-08-16T03:59:23.874Z,23.70
2022-08-16T04:01:53.706Z,23.70
2022-08-16T04:04:32.249Z,23.70
2022-08-16T04:07:00.118Z,23.60
2022-08-16T04:09:26.600Z,23.60
2022-08-16T04:11:53.061Z,23.60
2022-08-16T04:14:33.087Z,23.60
2022-08-16T04:16:59.971Z,23.50
2022-08-16T04:19:31.734Z,23.60
2022-08-16T04:21:58.510Z,23.60
2022-08-16T04:24:28.919Z,23.50
2022-08-16T04:26:55.539Z,23.50
2022-08-16T04:29:24.975Z,23.50
2022-08-16T04:31:56.901Z,23.40
2022-08-16T04:34:24.804Z,23.40
2022-08-16T04:36:51.474Z,23.30
2022-08-16T04:39:20.048Z,23.30
2022-08-16T04:41:50.419Z,23.30
2022-08-16T04:44:52.786Z,23.30
2022-08-16T04:47:21.578Z,23.20
2022-08-16T04:49:52.343Z,23.20
2022-08-16T04:52:34.084Z,23.10
2022-08-16T04:55:03.473Z,23.10
2022-08-16T04:57:30.439Z,23.00
2022-08-16T04:59:57.021Z,22.90
2022-08-16T05:02:41.810Z,22.90
2022-08-16T05:05:09.293Z,22.90
2022-08-16T05:07:58.241Z,22.90
2022-08-16T05:10:26.620Z,22.90
2022-08-16T05:12:53.117Z,22.90
2022-08-16T05:15:19.579Z,23.00
2022-08-16T05:17:46.913Z,23.00
2022-08-16T05:20:38.774Z,23.00
2022-08-16T05:22:59.835Z,23.10
2022-08-16T05:25:40.669Z,23.10
2022-08-16T05:28:07.887Z,23.20
2022-08-16T05:30:38.377Z,23.20
2022-08-16T05:33:04.943Z,23.20
2022-08-16T05:35:31.402Z,23.20
2022-08-16T05:37:59.085Z,23.20
2022-08-16T05:40:25.541Z,23.20
2022-08-16T05:42:53.134Z,23.30
2022-08-16T05:45:23.274Z,23.30
2022-08-16T05:47:59.523Z,23.30
2022-08-16T05:50:28.088Z,23.40
2022-08-16T05:52:54.901Z,23.40
2022-08-16T05:55:21.368Z,23.50
2022-08-16T05:57:52.487Z,23.50
2022-08-16T06:00:22.748Z,23.50
2022-08-16T06:02:50.690Z,23.60
2022-08-16T06:05:17.155Z,23.60
2022-08-16T06:07:43.620Z,23.60
2022-08-16T06:10:10.084Z,23.60
2022-08-16T06:12:36.559Z,23.60
2022-08-16T06:15:04.405Z,23.70
2022-08-16T06:17:41.739Z,23.70
2022-08-16T06:20:10.529Z,23.80
2022-08-16T06:22:39.354Z,23.90
2022-08-16T06:25:06.184Z,23.80
2022-08-16T06:27:39.497Z,24.00
2022-08-16T06:30:07.313Z,24.00
2022-08-16T06:32:37.613Z,24.00
2022-08-16T06:35:09.379Z,24.10
2022-08-16T06:37:37.490Z,24.10
2022-08-16T06:40:04.964Z,24.20
2022-08-16T06:42:47.006Z,24.20
2022-08-16T06:45:13.859Z,24.30
2022-08-16T06:47:53.369Z,24.40
2022-08-16T06:50:22.068Z,24.40
2022-08-16T06:52:58.354Z,24.50
2022-08-16T06:55:29.860Z,24.60
2022-08-16T06:58:01.056Z,24.60
2022-08-16T07:00:27.606Z,24.70
2022-08-16T07:02:54.839Z,24.70
2022-08-16T07:05:27.062Z,24.80
2022-08-16T07:08:07.694Z,24.90
2022-08-16T07:10:37.872Z,25.00
2022-08-16T07:13:14.979Z,25.10
2022-08-16T07:15:54.524Z,25.10
2022-08-16T07:18:21.025Z,25.20
2022-08-16T07:20:48.336Z,25.20
2022-08-16T07:23:15.001Z,25.30
2022-08-16T07:25:41.479Z,25.30
2022-08-16T07:28:11.828Z,25.30
2022-08-16T07:30:46.527Z,25.40
2022-08-16T07:33:15.991Z,25.40
2022-08-16T07:35:44.211Z,25.40
2022-08-16T07:38:12.198Z,25.50
2022-08-16T07:41:01.000Z,25.60
2022-08-16T07:43:25.121Z,25.60
2022-08-16T07:45:55.838Z,25.70
2022-08-16T07:48:22.324Z,25.80
2022-08-16T07:50:55.809Z,25.80
2022-08-16T07:53:25.073Z,25.90
2022-08-16T07:55:55.673Z,25.90
2022-08-16T07:58:33.683Z,26.00
2022-08-16T08:01:01.979Z,26.10
2022-08-16T08:03:36.045Z,26.20
2022-08-16T08:06:05.305Z,26.30
2022-08-16T08:08:51.818Z,26.30
2022-08-16T08:11:18.775Z,26.50
2022-08-16T08:13:45.241Z,26.60
2022-08-16T08:16:18.852Z,26.70
2022-08-16T08:18:49.762Z,26.90
2022-08-16T08:21:16.532Z,27.00
2022-08-16T08:23:45.103Z,27.30
2022-08-16T08:26:17.738Z,27.50
2022-08-16T08:28:44.617Z,27.90
2022-08-16T08:31:11.834Z,28.20
2022-08-16T08:33:47.105Z,28.40
2022-08-16T08:36:22.083Z,28.70
2022-08-16T08:38:48.869Z,28.90
2022-08-16T08:41:18.602Z,29.20
2022-08-16T08:43:46.003Z,29.30
2022-08-16T08:46:18.280Z,29.60
2022-08-16T08:48:59.409Z,29.80
2022-08-16T08:51:27.590Z,30.00
2022-08-16T08:53:58.755Z,30.20
2022-08-16T08:56:25.845Z,30.40
2022-08-16T08:58:53.629Z,30.50
2022-08-16T09:01:31.416Z,30.60
2022-08-16T09:04:02.781Z,30.80
2022-08-16T09:06:31.087Z,31.00
2022-08-16T09:08:57.654Z,31.20
2022-08-16T09:11:38.839Z,31.30
2022-08-16T09:14:07.596Z,31.60
2022-08-16T09:17:02.917Z,31.70
2022-08-16T09:19:20.513Z,31.90
2022-08-16T09:21:59.731Z,32.00
2022-08-16T09:24:47.189Z,32.10
2022-08-16T09:27:12.648Z,32.20
2022-08-16T09:29:44.978Z,32.40
2022-08-16T09:32:12.285Z,32.50
2022-08-16T09:34:38.741Z,32.50
2022-08-16T09:37:17.584Z,32.70
2022-08-16T09:39:50.026Z,32.90
2022-08-16T09:42:16.992Z,33.10
2022-08-16T09:45:11.993Z,33.20
2022-08-16T09:47:57.248Z,33.40
2022-08-16T09:50:22.504Z,33.50
2022-08-16T09:52:49.855Z,33.60
2022-08-16T09:55:16.425Z,33.80
2022-08-16T09:57:43.276Z,34.00
2022-08-16T10:00:44.545Z,34.20
2022-08-16T10:03:06.157Z,34.40
2022-08-16T10:05:35.804Z,34.50
2022-08-16T10:08:25.358Z,34.60
2022-08-16T10:10:48.720Z,34.80
2022-08-16T10:13:16.370Z,34.80
2022-08-16T10:15:43.193Z,35.10
2022-08-16T10:19:02.147Z,35.10
2022-08-16T10:21:06.280Z,35.30
2022-08-16T10:23:35.412Z,35.40
2022-08-16T10:27:19.265Z,35.50
2022-08-16T10:28:50.227Z,35.50
2022-08-16T10:31:44.265Z,35.60
2022-08-16T10:34:03.377Z,35.80
2022-08-16T10:36:38.119Z,35.90
2022-08-16T10:39:08.494Z,35.90
2022-08-16T10:41:35.209Z,35.90
2022-08-16T10:44:02.221Z,35.90
2022-08-16T10:46:39.396Z,35.90
2022-08-16T10:49:08.338Z,36.10
2022-08-16T10:52:01.775Z,36.30
2022-08-16T10:54:29.945Z,36.40
2022-08-16T10:56:57.013Z,36.60
2022-08-16T10:59:32.861Z,36.80
2022-08-16T11:05:08.517Z,36.80
2022-08-16T11:07:43.476Z,36.80
2022-08-16T11:13:21.081Z,36.70
2022-08-16T11:15:51.955Z,36.90
2022-08-16T11:18:48.400Z,37.10
2022-08-16T11:21:08.561Z,37.20
2022-08-16T11:23:35.047Z,37.20
2022-08-16T11:26:16.477Z,37.40
2022-08-16T11:31:34.512Z,37.90
2022-08-16T11:34:01.917Z,38.00
2022-08-16T11:36:29.102Z,38.10
2022-08-16T11:38:57.490Z,38.30
2022-08-16T11:41:24.855Z,38.40
2022-08-16T11:43:52.998Z,38.50
2022-08-16T11:46:43.090Z,38.60
2022-08-16T11:49:09.918Z,38.70
2022-08-16T11:51:39.345Z,38.80
2022-08-16T11:54:05.821Z,39.00
2022-08-16T11:56:56.683Z,39.00
2022-08-16T11:59:24.221Z,39.20
2022-08-16T12:01:58.992Z,39.30
2022-08-16T12:04:26.662Z,39.50
2022-08-16T12:06:53.786Z,39.60
2022-08-16T12:09:21.257Z,39.70
2022-08-16T12:11:52.670Z,39.70
2022-08-16T12:14:19.832Z,39.60
2022-08-16T12:16:55.438Z,39.60
2022-08-16T12:19:22.443Z,39.60
2022-08-16T12:22:00.024Z,39.50
2022-08-16T12:24:26.505Z,39.50
2022-08-16T12:26:52.965Z,39.60
2022-08-16T12:29:20.349Z,39.70
2022-08-16T12:31:56.882Z,39.70
2022-08-16T12:34:29.157Z,39.70
2022-08-16T12:36:55.859Z,39.90
2022-08-16T12:39:22.336Z,40.00
2022-08-16T12:41:48.806Z,40.00
2022-08-16T12:44:19.770Z,40.00
2022-08-16T12:46:46.784Z,40.10
2022-08-16T12:49:14.057Z,40.20
2022-08-16T12:51:59.360Z,40.30
2022-08-16T12:54:26.722Z,40.40
2022-08-16T12:56:53.181Z,40.60
2022-08-16T12:59:22.045Z,40.60
2022-08-16T13:01:50.254Z,40.60
2022-08-16T13:04:20.963Z,40.50
2022-08-16T13:06:52.499Z,40.40
2022-08-16T13:09:19.393Z,40.10
2022-08-16T13:11:48.324Z,39.80
2022-08-16T13:14:31.273Z,39.50
2022-08-16T13:16:59.760Z,39.30
2022-08-16T13:19:39.371Z,39.10
2022-08-16T13:22:19.547Z,38.90
2022-08-16T13:24:46.371Z,38.50
2022-08-16T13:27:13.080Z,38.30
2022-08-16T13:29:44.117Z,38.10
2022-08-16T13:32:10.735Z,38.00
2022-08-16T13:34:57.180Z,37.80
2022-08-16T13:37:23.650Z,37.70
2022-08-16T13:39:52.479Z,37.60
2022-08-16T13:42:19.020Z,37.60
2022-08-16T13:44:48.809Z,37.70
2022-08-16T13:47:24.534Z,38.00
2022-08-16T13:49:56.465Z,38.20
2022-08-16T13:52:22.936Z,38.60
2022-08-16T13:54:51.500Z,38.90
2022-08-16T13:57:17.976Z,39.00
2022-08-16T13:59:45.320Z,39.10
2022-08-16T14:02:11.912Z,39.20
2022-08-16T14:04:38.383Z,39.30
2022-08-16T14:07:06.430Z,39.30
2022-08-16T14:09:32.963Z,39.20
2022-08-16T14:12:00.496Z,38.90
2022-08-16T14:14:29.349Z,38.80
2022-08-16T14:16:56.213Z,38.80
2022-08-16T14:19:22.871Z,39.00
2022-08-16T14:21:56.542Z,39.00
2022-08-16T14:24:30.150Z,39.00
2022-08-16T14:26:57.068Z,38.80
2022-08-16T14:29:23.538Z,38.50
2022-08-16T14:31:54.156Z,38.40
2022-08-16T14:34:20.876Z,38.40
2022-08-16T14:36:47.354Z,38.50
2022-08-16T14:39:18.639Z,38.70
2022-08-16T14:41:45.105Z,38.70
2022-08-16T14:44:11.572Z,38.80
2022-08-16T14:46:38.163Z,38.80
2022-08-16T14:49:05.227Z,38.90
2022-08-16T14:51:35.730Z,38.70
2022-08-16T14:54:02.244Z,38.30
2022-08-16T14:56:38.850Z,37.80
2022-08-16T14:59:13.150Z,37.50
2022-08-16T15:01:57.935Z,37.50
2022-08-16T15:04:32.581Z,37.50
2022-08-16T15:07:06.377Z,37.10
2022-08-16T15:09:44.140Z,36.80
2022-08-16T15:12:26.785Z,36.60
2022-08-16T15:14:57.295Z,36.50
2022-08-16T15:17:25.793Z,36.70
2022-08-16T15:19:53.233Z,36.70
2022-08-16T15:22:19.698Z,36.60
2022-08-16T15:24:46.177Z,36.40
2022-08-16T15:27:12.654Z,36.20
2022-08-16T15:29:40.015Z,36.10
2022-08-16T15:32:08.385Z,36.20
2022-08-16T15:34:35.609Z,36.20
2022-08-16T15:37:02.077Z,36.30
2022-08-16T15:39:37.146Z,36.40
2022-08-16T15:42:06.233Z,36.30
2022-08-16T15:44:50.955Z,36.20
2022-08-16T15:47:19.633Z,36.00
2022-08-16T15:49:46.750Z,36.00
2022-08-16T15:52:20.717Z,35.80
2022-08-16T15:54:55.297Z,35.70
2022-08-16T15:57:21.991Z,35.70
2022-08-16T15:59:52.985Z,35.60
2022-08-16T16:02:29.120Z,35.50
2022-08-16T16:04:57.649Z,35.40
2022-08-16T16:07:27.568Z,35.40
2022-08-16T16:09:58.761Z,35.30
2022-08-16T16:15:11.887Z,35.20
2022-08-16T16:17:38.358Z,35.10
2022-08-16T16:20:04.877Z,35.10
2022-08-16T16:22:31.349Z,35.00
2022-08-16T16:24:57.812Z,35.00
2022-08-16T16:27:24.287Z,34.90
2022-08-16T16:29:58.071Z,34.90
2022-08-16T16:32:33.235Z,34.90
2022-08-16T16:35:01.256Z,35.00
2022-08-16T16:37:27.734Z,35.10
2022-08-16T16:39:54.392Z,35.10
2022-08-16T16:42:29.371Z,35.10
2022-08-16T16:45:00.935Z,35.10
2022-08-16T16:47:28.220Z,35.20
2022-08-16T16:49:55.057Z,35.20
2022-08-16T16:52:43.304Z,35.20
2022-08-16T16:55:07.972Z,35.10
2022-08-16T16:57:35.384Z,35.00
2022-08-16T17:00:04.714Z,34.80
2022-08-16T17:02:53.653Z,34.70
2022-08-16T17:05:20.508Z,34.50
2022-08-16T17:07:47.123Z,34.40
2022-08-16T17:10:13.951Z,34.20
2022-08-16T17:13:00.460Z,34.20
2022-08-16T17:15:36.437Z,34.10
2022-08-16T17:18:36.965Z,34.00
2022-08-16T17:20:49.692Z,34.00
2022-08-16T17:23:16.206Z,33.90
2022-08-16T17:25:46.076Z,33.90
2022-08-16T17:28:58.112Z,33.80
2022-08-16T17:31:05.269Z,33.70
2022-08-16T17:33:36.786Z,33.70
2022-08-16T17:36:03.833Z,33.60
2022-08-16T17:38:39.070Z,33.50
2022-08-16T17:41:12.407Z,33.50
2022-08-16T17:43:43.893Z,33.50
2022-08-16T17:46:51.443Z,33.50
2022-08-16T17:48:57.527Z,33.30
2022-08-16T17:51:24.000Z,33.10
2022-08-16T17:53:50.764Z,33.00
2022-08-16T17:56:17.284Z,32.90
2022-08-16T17:58:43.749Z,32.70
2022-08-16T18:01:10.377Z,32.50
2022-08-16T18:04:06.451Z,32.40
2022-08-16T18:06:23.328Z,32.30
2022-08-16T18:08:51.197Z,32.20
2022-08-16T18:11:25.758Z,32.00
2022-08-16T18:13:52.779Z,32.00
2022-08-16T18:16:19.262Z,31.90
2022-08-16T18:18:45.721Z,31.80
2022-08-16T18:21:12.187Z,31.70
2022-08-16T18:23:38.669Z,31.60
2022-08-16T18:26:05.136Z,31.40
2022-08-16T18:28:31.635Z,31.30
2022-08-16T18:31:01.159Z,31.30
2022-08-16T18:33:31.706Z,31.20
2022-08-16T18:35:58.308Z,31.10
2022-08-16T18:38:24.805Z,30.90
2022-08-16T18:40:51.269Z,30.80
2022-08-16T18:43:17.752Z,30.60
2022-08-16T18:45:44.213Z,30.50
2022-08-16T18:48:10.689Z,30.40
2022-08-16T18:50:59.693Z,30.40
2022-08-16T18:53:23.597Z,30.40
2022-08-16T18:55:50.060Z,30.30
2022-08-16T18:58:16.533Z,30.30
2022-08-16T19:00:50.541Z,30.30
2022-08-16T19:03:23.335Z,30.20
2022-08-16T19:05:49.810Z,30.10
2022-08-16T19:08:16.291Z,30.00
2022-08-16T19:10:42.774Z,30.00
2022-08-16T19:13:09.250Z,29.90
2022-08-16T19:15:35.712Z,29.90
2022-08-16T19:18:02.197Z,29.80
2022-08-16T19:20:28.660Z,29.80
2022-08-16T19:23:05.611Z,29.70
2022-08-16T19:25:48.247Z,29.70
2022-08-16T19:28:49.792Z,29.60
2022-08-16T19:31:02.714Z,29.40
2022-08-16T19:33:29.181Z,29.30
2022-08-16T19:35:55.649Z,29.20
2022-08-16T19:38:22.132Z,29.20
2022-08-16T19:40:48.651Z,29.00
2022-08-16T19:43:15.193Z,28.90
2022-08-16T19:45:45.950Z,28.80
2022-08-16T19:48:12.849Z,28.80
2022-08-16T19:50:39.306Z,28.80
2022-08-16T19:53:13.158Z,28.80
2022-08-16T19:55:45.187Z,28.80
2022-08-16T19:58:13.786Z,28.70
2022-08-16T20:00:40.275Z,28.60
2022-08-16T20:03:09.244Z,28.60
2022-08-16T20:05:35.721Z,28.50
2022-08-16T20:08:04.456Z,28.50
2022-08-16T20:10:31.246Z,28.50
2022-08-16T20:13:01.930Z,28.50
2022-08-16T20:15:29.089Z,28.40
2022-08-16T20:17:55.565Z,28.50
2022-08-16T20:20:22.036Z,28.50
2022-08-16T20:22:54.258Z,28.50
2022-08-16T20:25:21.163Z,28.40
2022-08-16T20:27:54.986Z,28.30
2022-08-16T20:30:21.465Z,28.20
2022-08-16T20:32:48.069Z,28.10
2022-08-16T20:35:14.734Z,28.00
2022-08-16T20:37:41.194Z,27.90
2022-08-16T20:40:34.438Z,27.90
2022-08-16T20:42:57.592Z,27.90
2022-08-16T20:45:24.565Z,27.90
2022-08-16T20:47:54.129Z,27.90
2022-08-16T20:50:20.714Z,27.90
2022-08-16T20:52:47.179Z,27.80
2022-08-16T20:55:13.649Z,27.70
2022-08-16T20:57:40.112Z,27.60
2022-08-16T21:00:06.581Z,27.50
2022-08-16T21:02:33.055Z,27.40
2022-08-16T21:05:04.489Z,27.40
2022-08-16T21:07:30.954Z,27.40
2022-08-16T21:09:57.433Z,27.40
2022-08-16T21:12:23.897Z,27.40
2022-08-16T21:14:53.538Z,27.40
2022-08-16T21:17:20.008Z,27.40
2022-08-16T21:19:46.493Z,27.20
2022-08-16T21:22:12.963Z,27.10
2022-08-16T21:24:39.425Z,27.10
2022-08-16T21:27:05.888Z,27.10
2022-08-16T21:29:39.628Z,27.10
2022-08-16T21:32:09.652Z,27.10
2022-08-16T21:34:36.121Z,27.00
2022-08-16T21:37:02.595Z,26.90
2022-08-16T21:39:29.070Z,26.90
2022-08-16T21:41:55.576Z,27.00
2022-08-16T21:44:22.032Z,26.90
2022-08-16T21:46:58.821Z,26.90
2022-08-16T21:49:25.292Z,26.90
2022-08-16T21:51:51.770Z,26.90
2022-08-16T21:54:18.233Z,26.90
2022-08-16T21:56:44.713Z,26.90
2022-08-16T21:59:11.185Z,26.90
2022-08-16T22:01:37.722Z,26.90
2022-08-16T22:04:37.757Z,26.90
2022-08-16T22:06:50.657Z,26.90
2022-08-16T22:09:17.118Z,26.80
2022-08-16T22:11:43.588Z,26.80
2022-08-16T22:14:10.056Z,26.80
2022-08-16T22:16:36.539Z,26.80
2022-08-16T22:19:03.001Z,26.70
2022-08-16T22:21:29.478Z,26.70
2022-08-16T22:23:57.639Z,26.60
2022-08-16T22:26:29.727Z,26.60
2022-08-16T22:28:57.602Z,26.60
2022-08-16T22:31:24.085Z,26.60
2022-08-16T22:33:50.598Z,26.50
2022-08-16T22:36:17.085Z,26.50
2022-08-16T22:38:54.957Z,26.50
2022-08-16T22:41:23.325Z,26.50
2022-08-16T22:43:49.795Z,26.60
2022-08-16T22:46:16.281Z,26.60
2022-08-16T22:48:42.895Z,26.60
2022-08-16T22:51:09.382Z,26.60
2022-08-16T22:53:37.498Z,26.70
2022-08-16T22:56:04.069Z,26.70
2022-08-16T22:58:36.736Z,26.60
2022-08-16T23:01:03.725Z,26.70
2022-08-16T23:03:30.495Z,26.50
2022-08-16T23:05:56.953Z,26.50
2022-08-16T23:08:38.752Z,26.50
2022-08-16T23:11:06.681Z,26.40
2022-08-16T23:13:33.155Z,26.50
2022-08-16T23:15:59.619Z,26.50
2022-08-16T23:18:27.835Z,26.50
2022-08-16T23:20:54.289Z,26.50
2022-08-16T23:23:21.970Z,26.50
2022-08-16T23:25:48.707Z,26.50
2022-08-16T23:28:15.215Z,26.50
2022-08-16T23:30:41.676Z,26.50
2022-08-16T23:33:08.134Z,26.50
2022-08-16T23:35:45.244Z,26.50
2022-08-16T23:38:38.833Z,26.50
2022-08-16T23:40:58.800Z,26.50
2022-08-16T23:43:25.258Z,26.50
2022-08-16T23:45:51.738Z,26.60
2022-08-16T23:48:18.194Z,26.60
2022-08-16T23:50:44.664Z,26.60
2022-08-16T23:53:11.123Z,26.60
2022-08-16T23:55:37.599Z,26.60
2022-08-16T23:58:04.060Z,26.60
